sensor_id;sensor_type;location;lat;lon;timestamp;P1;durP1;ratioP1;P2;durP2;ratioP2
71048;SDS011;58704;53.358;-6.238;2023-12-22T00:00:28;4.05;;;1.27;;
71048;SDS011;58704;53.358;-6.238;2023-12-22T00:02:53;3.27;;;1.30;;
71048;SDS011;58704;53.358;-6.238;2023-12-22T00:05:19;3.37;;;1.43;;
71048;SDS011;58704;53.358;-6.238;2023-12-22T00:07:44;2.73;;;1.50;;
71048;SDS011;58704;53.358;-6.238;2023-12-22T00:10:09;2.87;;;1.13;;
71048;SDS011;58704;53.358;-6.238;2023-12-22T00:12:34;3.50;;;1.33;;
71048;SDS011;58704;53.358;-6.238;2023-12-22T00:15:00;6.10;;;1.27;;
71048;SDS011;58704;53.358;-6.238;2023-12-22T00:17:25;1.47;;;0.90;;
71048;SDS011;58704;53.358;-6.238;2023-12-22T00:19:50;3.63;;;1.30;;
71048;SDS011;58704;53.358;-6.238;2023-12-22T00:22:16;5.37;;;1.30;;
71048;SDS011;58704;53.358;-6.238;2023-12-22T00:24:41;6.37;;;1.70;;
71048;SDS011;58704;53.358;-6.238;2023-12-22T00:27:07;3.72;;;1.17;;
71048;SDS011;58704;53.358;-6.238;2023-12-22T00:29:32;3.47;;;0.90;;
71048;SDS011;58704;53.358;-6.238;2023-12-22T00:32:01;3.47;;;1.13;;
71048;SDS011;58704;53.358;-6.238;2023-12-22T00:34:26;6.80;;;1.37;;
71048;SDS011;58704;53.358;-6.238;2023-12-22T00:36:51;4.83;;;1.17;;
71048;SDS011;58704;53.358;-6.238;2023-12-22T00:39:16;1.88;;;0.82;;
71048;SDS011;58704;53.358;-6.238;2023-12-22T00:41:42;4.23;;;1.23;;
71048;SDS011;58704;53.358;-6.238;2023-12-22T00:44:07;3.50;;;1.23;;
71048;SDS011;58704;53.358;-6.238;2023-12-22T00:46:32;3.33;;;1.43;;
71048;SDS011;58704;53.358;-6.238;2023-12-22T00:48:57;2.73;;;1.13;;
71048;SDS011;58704;53.358;-6.238;2023-12-22T00:51:23;7.07;;;2.20;;
71048;SDS011;58704;53.358;-6.238;2023-12-22T00:53:48;5.80;;;1.80;;
71048;SDS011;58704;53.358;-6.238;2023-12-22T00:56:13;4.23;;;1.50;;
71048;SDS011;58704;53.358;-6.238;2023-12-22T00:58:39;4.23;;;1.47;;
71048;SDS011;58704;53.358;-6.238;2023-12-22T01:01:05;2.65;;;1.00;;
71048;SDS011;58704;53.358;-6.238;2023-12-22T01:03:30;4.37;;;1.27;;
71048;SDS011;58704;53.358;-6.238;2023-12-22T01:05:55;2.33;;;1.20;;
71048;SDS011;58704;53.358;-6.238;2023-12-22T01:08:20;2.47;;;1.57;;
71048;SDS011;58704;53.358;-6.238;2023-12-22T01:10:46;5.03;;;1.50;;
71048;SDS011;58704;53.358;-6.238;2023-12-22T01:13:11;1.70;;;0.90;;
71048;SDS011;58704;53.358;-6.238;2023-12-22T01:15:36;3.77;;;1.77;;
71048;SDS011;58704;53.358;-6.238;2023-12-22T01:18:01;3.33;;;1.10;;
71048;SDS011;58704;53.358;-6.238;2023-12-22T01:20:27;5.40;;;1.27;;
71048;SDS011;58704;53.358;-6.238;2023-12-22T01:22:52;4.27;;;1.03;;
71048;SDS011;58704;53.358;-6.238;2023-12-22T01:25:17;3.00;;;1.00;;
71048;SDS011;58704;53.358;-6.238;2023-12-22T01:27:42;7.30;;;1.57;;
71048;SDS011;58704;53.358;-6.238;2023-12-22T01:30:08;4.97;;;1.73;;
71048;SDS011;58704;53.358;-6.238;2023-12-22T01:32:33;8.23;;;1.50;;
71048;SDS011;58704;53.358;-6.238;2023-12-22T01:35:01;5.53;;;1.30;;
71048;SDS011;58704;53.358;-6.238;2023-12-22T01:37:31;4.93;;;1.40;;
71048;SDS011;58704;53.358;-6.238;2023-12-22T01:39:57;5.57;;;1.30;;
71048;SDS011;58704;53.358;-6.238;2023-12-22T01:42:23;6.18;;;1.98;;
71048;SDS011;58704;53.358;-6.238;2023-12-22T01:44:48;8.67;;;1.87;;
71048;SDS011;58704;53.358;-6.238;2023-12-22T01:47:13;5.37;;;1.20;;
71048;SDS011;58704;53.358;-6.238;2023-12-22T01:49:39;7.40;;;1.42;;
71048;SDS011;58704;53.358;-6.238;2023-12-22T01:52:04;6.10;;;1.43;;
71048;SDS011;58704;53.358;-6.238;2023-12-22T01:54:30;4.43;;;1.23;;
71048;SDS011;58704;53.358;-6.238;2023-12-22T01:56:55;3.53;;;1.00;;
71048;SDS011;58704;53.358;-6.238;2023-12-22T01:59:21;4.13;;;1.67;;
71048;SDS011;58704;53.358;-6.238;2023-12-22T02:01:46;4.47;;;1.13;;
71048;SDS011;58704;53.358;-6.238;2023-12-22T02:04:12;8.37;;;1.93;;
71048;SDS011;58704;53.358;-6.238;2023-12-22T02:06:37;9.68;;;1.50;;
71048;SDS011;58704;53.358;-6.238;2023-12-22T02:09:03;5.27;;;1.27;;
71048;SDS011;58704;53.358;-6.238;2023-12-22T02:11:29;3.33;;;1.80;;
71048;SDS011;58704;53.358;-6.238;2023-12-22T02:13:54;6.13;;;1.60;;
71048;SDS011;58704;53.358;-6.238;2023-12-22T02:18:46;11.90;;;2.80;;
71048;SDS011;58704;53.358;-6.238;2023-12-22T02:21:12;10.18;;;2.05;;
71048;SDS011;58704;53.358;-6.238;2023-12-22T02:23:37;11.23;;;1.60;;
71048;SDS011;58704;53.358;-6.238;2023-12-22T02:26:06;8.30;;;1.43;;
71048;SDS011;58704;53.358;-6.238;2023-12-22T02:28:35;7.45;;;1.50;;
71048;SDS011;58704;53.358;-6.238;2023-12-22T02:31:09;9.93;;;2.23;;
71048;SDS011;58704;53.358;-6.238;2023-12-22T02:33:37;10.73;;;1.85;;
71048;SDS011;58704;53.358;-6.238;2023-12-22T02:36:03;11.05;;;1.77;;
71048;SDS011;58704;53.358;-6.238;2023-12-22T02:38:29;8.35;;;1.40;;
71048;SDS011;58704;53.358;-6.238;2023-12-22T02:40:55;10.60;;;2.10;;
71048;SDS011;58704;53.358;-6.238;2023-12-22T02:43:21;10.83;;;2.20;;
71048;SDS011;58704;53.358;-6.238;2023-12-22T02:45:49;12.53;;;2.23;;
71048;SDS011;58704;53.358;-6.238;2023-12-22T02:48:15;8.48;;;2.78;;
71048;SDS011;58704;53.358;-6.238;2023-12-22T02:50:40;12.03;;;1.60;;
71048;SDS011;58704;53.358;-6.238;2023-12-22T02:53:05;10.93;;;1.90;;
71048;SDS011;58704;53.358;-6.238;2023-12-22T02:55:33;13.00;;;2.20;;
71048;SDS011;58704;53.358;-6.238;2023-12-22T02:57:59;11.13;;;2.00;;
71048;SDS011;58704;53.358;-6.238;2023-12-22T03:00:24;14.53;;;2.23;;
71048;SDS011;58704;53.358;-6.238;2023-12-22T03:02:49;15.60;;;2.67;;
71048;SDS011;58704;53.358;-6.238;2023-12-22T03:05:14;16.67;;;2.70;;
71048;SDS011;58704;53.358;-6.238;2023-12-22T03:07:40;11.30;;;1.90;;
71048;SDS011;58704;53.358;-6.238;2023-12-22T03:10:05;15.03;;;2.10;;
71048;SDS011;58704;53.358;-6.238;2023-12-22T03:12:32;15.32;;;2.15;;
71048;SDS011;58704;53.358;-6.238;2023-12-22T03:14:57;11.90;;;1.85;;
71048;SDS011;58704;53.358;-6.238;2023-12-22T03:17:23;11.50;;;2.10;;
71048;SDS011;58704;53.358;-6.238;2023-12-22T03:19:48;16.40;;;2.30;;
71048;SDS011;58704;53.358;-6.238;2023-12-22T03:22:13;12.50;;;2.10;;
71048;SDS011;58704;53.358;-6.238;2023-12-22T03:24:38;12.50;;;2.00;;
71048;SDS011;58704;53.358;-6.238;2023-12-22T03:27:04;12.47;;;2.57;;
71048;SDS011;58704;53.358;-6.238;2023-12-22T03:29:29;7.37;;;2.23;;
71048;SDS011;58704;53.358;-6.238;2023-12-22T03:31:54;12.80;;;1.73;;
71048;SDS011;58704;53.358;-6.238;2023-12-22T03:34:22;11.40;;;1.60;;
71048;SDS011;58704;53.358;-6.238;2023-12-22T03:36:47;11.45;;;2.80;;
71048;SDS011;58704;53.358;-6.238;2023-12-22T03:39:13;18.33;;;2.05;;
71048;SDS011;58704;53.358;-6.238;2023-12-22T03:41:39;13.57;;;1.70;;
71048;SDS011;58704;53.358;-6.238;2023-12-22T03:44:04;13.60;;;1.95;;
71048;SDS011;58704;53.358;-6.238;2023-12-22T03:46:29;11.23;;;1.83;;
71048;SDS011;58704;53.358;-6.238;2023-12-22T03:48:55;8.27;;;2.23;;
71048;SDS011;58704;53.358;-6.238;2023-12-22T03:51:20;14.63;;;2.03;;
71048;SDS011;58704;53.358;-6.238;2023-12-22T03:53:48;10.40;;;1.83;;
71048;SDS011;58704;53.358;-6.238;2023-12-22T03:56:13;14.73;;;2.20;;
71048;SDS011;58704;53.358;-6.238;2023-12-22T03:58:39;19.57;;;2.57;;
71048;SDS011;58704;53.358;-6.238;2023-12-22T04:01:04;19.80;;;2.30;;
71048;SDS011;58704;53.358;-6.238;2023-12-22T04:03:32;12.40;;;2.47;;
71048;SDS011;58704;53.358;-6.238;2023-12-22T04:05:57;16.93;;;2.43;;
71048;SDS011;58704;53.358;-6.238;2023-12-22T04:08:23;17.47;;;2.47;;
71048;SDS011;58704;53.358;-6.238;2023-12-22T04:10:48;11.60;;;2.07;;
71048;SDS011;58704;53.358;-6.238;2023-12-22T04:13:13;17.10;;;2.57;;
71048;SDS011;58704;53.358;-6.238;2023-12-22T04:15:39;11.43;;;2.40;;
71048;SDS011;58704;53.358;-6.238;2023-12-22T04:18:04;13.37;;;1.97;;
71048;SDS011;58704;53.358;-6.238;2023-12-22T04:20:29;19.40;;;3.10;;
71048;SDS011;58704;53.358;-6.238;2023-12-22T04:22:55;17.83;;;2.70;;
71048;SDS011;58704;53.358;-6.238;2023-12-22T04:25:20;14.93;;;3.00;;
71048;SDS011;58704;53.358;-6.238;2023-12-22T04:27:47;14.90;;;2.00;;
71048;SDS011;58704;53.358;-6.238;2023-12-22T04:30:13;10.27;;;1.80;;
71048;SDS011;58704;53.358;-6.238;2023-12-22T04:32:38;13.83;;;2.33;;
71048;SDS011;58704;53.358;-6.238;2023-12-22T04:35:04;12.43;;;2.67;;
71048;SDS011;58704;53.358;-6.238;2023-12-22T04:37:29;15.77;;;2.17;;
71048;SDS011;58704;53.358;-6.238;2023-12-22T04:39:54;11.23;;;2.13;;
71048;SDS011;58704;53.358;-6.238;2023-12-22T04:42:19;10.07;;;2.00;;
71048;SDS011;58704;53.358;-6.238;2023-12-22T04:44:45;11.77;;;1.90;;
71048;SDS011;58704;53.358;-6.238;2023-12-22T04:47:10;8.53;;;1.97;;
71048;SDS011;58704;53.358;-6.238;2023-12-22T04:49:37;15.02;;;2.00;;
71048;SDS011;58704;53.358;-6.238;2023-12-22T04:52:02;7.40;;;1.70;;
71048;SDS011;58704;53.358;-6.238;2023-12-22T04:54:28;11.30;;;2.33;;
71048;SDS011;58704;53.358;-6.238;2023-12-22T04:56:53;9.67;;;2.23;;
71048;SDS011;58704;53.358;-6.238;2023-12-22T04:59:18;14.50;;;2.40;;
71048;SDS011;58704;53.358;-6.238;2023-12-22T05:01:43;10.60;;;2.30;;
71048;SDS011;58704;53.358;-6.238;2023-12-22T05:04:10;10.70;;;1.90;;
71048;SDS011;58704;53.358;-6.238;2023-12-22T05:06:35;9.83;;;1.53;;
71048;SDS011;58704;53.358;-6.238;2023-12-22T05:09:01;9.47;;;2.00;;
71048;SDS011;58704;53.358;-6.238;2023-12-22T05:11:27;10.52;;;2.30;;
71048;SDS011;58704;53.358;-6.238;2023-12-22T05:13:52;9.53;;;1.80;;
71048;SDS011;58704;53.358;-6.238;2023-12-22T05:16:18;9.27;;;1.90;;
71048;SDS011;58704;53.358;-6.238;2023-12-22T05:18:43;11.13;;;1.77;;
71048;SDS011;58704;53.358;-6.238;2023-12-22T05:21:11;9.70;;;1.97;;
71048;SDS011;58704;53.358;-6.238;2023-12-22T05:23:36;10.80;;;1.77;;
71048;SDS011;58704;53.358;-6.238;2023-12-22T05:26:02;8.23;;;2.20;;
71048;SDS011;58704;53.358;-6.238;2023-12-22T05:28:28;8.82;;;1.60;;
71048;SDS011;58704;53.358;-6.238;2023-12-22T05:30:53;6.60;;;1.50;;
71048;SDS011;58704;53.358;-6.238;2023-12-22T05:33:19;9.43;;;1.83;;
71048;SDS011;58704;53.358;-6.238;2023-12-22T05:35:44;7.43;;;2.03;;
71048;SDS011;58704;53.358;-6.238;2023-12-22T05:38:09;11.70;;;2.50;;
71048;SDS011;58704;53.358;-6.238;2023-12-22T05:40:34;5.13;;;1.33;;
71048;SDS011;58704;53.358;-6.238;2023-12-22T05:43:00;12.40;;;2.33;;
71048;SDS011;58704;53.358;-6.238;2023-12-22T05:45:25;7.73;;;1.17;;
71048;SDS011;58704;53.358;-6.238;2023-12-22T05:47:50;6.97;;;1.90;;
71048;SDS011;58704;53.358;-6.238;2023-12-22T05:50:16;7.57;;;1.60;;
71048;SDS011;58704;53.358;-6.238;2023-12-22T05:52:41;4.60;;;1.52;;
71048;SDS011;58704;53.358;-6.238;2023-12-22T05:55:08;9.93;;;1.70;;
71048;SDS011;58704;53.358;-6.238;2023-12-22T05:57:34;5.50;;;1.20;;
71048;SDS011;58704;53.358;-6.238;2023-12-22T05:59:59;9.97;;;1.90;;
71048;SDS011;58704;53.358;-6.238;2023-12-22T06:02:25;8.97;;;1.20;;
71048;SDS011;58704;53.358;-6.238;2023-12-22T06:04:50;7.88;;;1.45;;
71048;SDS011;58704;53.358;-6.238;2023-12-22T06:07:15;8.33;;;1.73;;
71048;SDS011;58704;53.358;-6.238;2023-12-22T06:09:40;11.10;;;2.20;;
71048;SDS011;58704;53.358;-6.238;2023-12-22T06:12:06;14.70;;;2.13;;
71048;SDS011;58704;53.358;-6.238;2023-12-22T06:14:31;10.63;;;1.67;;
71048;SDS011;58704;53.358;-6.238;2023-12-22T06:16:57;7.15;;;1.30;;
71048;SDS011;58704;53.358;-6.238;2023-12-22T06:19:23;12.23;;;1.77;;
71048;SDS011;58704;53.358;-6.238;2023-12-22T06:21:50;7.55;;;1.92;;
71048;SDS011;58704;53.358;-6.238;2023-12-22T06:24:15;9.33;;;2.17;;
71048;SDS011;58704;53.358;-6.238;2023-12-22T06:26:41;8.13;;;1.77;;
71048;SDS011;58704;53.358;-6.238;2023-12-22T06:29:06;11.15;;;2.08;;
71048;SDS011;58704;53.358;-6.238;2023-12-22T06:31:35;7.90;;;1.27;;
71048;SDS011;58704;53.358;-6.238;2023-12-22T06:34:00;5.80;;;1.70;;
71048;SDS011;58704;53.358;-6.238;2023-12-22T06:36:26;7.60;;;1.42;;
71048;SDS011;58704;53.358;-6.238;2023-12-22T06:38:52;7.87;;;1.80;;
71048;SDS011;58704;53.358;-6.238;2023-12-22T06:41:24;11.15;;;1.42;;
71048;SDS011;58704;53.358;-6.238;2023-12-22T06:43:50;9.27;;;2.43;;
71048;SDS011;58704;53.358;-6.238;2023-12-22T06:46:16;9.70;;;1.70;;
71048;SDS011;58704;53.358;-6.238;2023-12-22T06:48:41;15.52;;;2.05;;
71048;SDS011;58704;53.358;-6.238;2023-12-22T06:51:07;13.87;;;2.23;;
71048;SDS011;58704;53.358;-6.238;2023-12-22T06:53:32;10.37;;;1.97;;
71048;SDS011;58704;53.358;-6.238;2023-12-22T06:55:57;16.90;;;2.90;;
71048;SDS011;58704;53.358;-6.238;2023-12-22T06:58:23;12.77;;;2.07;;
71048;SDS011;58704;53.358;-6.238;2023-12-22T07:00:50;14.15;;;3.63;;
71048;SDS011;58704;53.358;-6.238;2023-12-22T07:03:16;12.27;;;2.40;;
71048;SDS011;58704;53.358;-6.238;2023-12-22T07:05:42;11.23;;;2.17;;
71048;SDS011;58704;53.358;-6.238;2023-12-22T07:08:07;17.10;;;2.57;;
71048;SDS011;58704;53.358;-6.238;2023-12-22T07:10:33;14.30;;;3.07;;
71048;SDS011;58704;53.358;-6.238;2023-12-22T07:12:58;12.82;;;2.13;;
71048;SDS011;58704;53.358;-6.238;2023-12-22T07:15:23;14.40;;;2.00;;
71048;SDS011;58704;53.358;-6.238;2023-12-22T07:17:49;10.87;;;1.97;;
71048;SDS011;58704;53.358;-6.238;2023-12-22T07:20:14;12.87;;;2.40;;
71048;SDS011;58704;53.358;-6.238;2023-12-22T07:22:39;21.23;;;2.50;;
71048;SDS011;58704;53.358;-6.238;2023-12-22T07:25:05;14.67;;;2.37;;
71048;SDS011;58704;53.358;-6.238;2023-12-22T07:27:30;17.27;;;2.73;;
71048;SDS011;58704;53.358;-6.238;2023-12-22T07:29:56;11.90;;;2.70;;
71048;SDS011;58704;53.358;-6.238;2023-12-22T07:32:21;14.53;;;2.27;;
71048;SDS011;58704;53.358;-6.238;2023-12-22T07:34:46;16.33;;;2.53;;
71048;SDS011;58704;53.358;-6.238;2023-12-22T07:37:11;14.73;;;2.10;;
71048;SDS011;58704;53.358;-6.238;2023-12-22T07:39:36;16.00;;;2.60;;
71048;SDS011;58704;53.358;-6.238;2023-12-22T07:42:03;12.03;;;2.47;;
71048;SDS011;58704;53.358;-6.238;2023-12-22T07:44:29;11.85;;;2.25;;
71048;SDS011;58704;53.358;-6.238;2023-12-22T07:46:57;16.27;;;2.40;;
71048;SDS011;58704;53.358;-6.238;2023-12-22T07:49:28;14.80;;;2.88;;
71048;SDS011;58704;53.358;-6.238;2023-12-22T07:51:54;16.45;;;2.53;;
71048;SDS011;58704;53.358;-6.238;2023-12-22T07:54:19;13.67;;;2.70;;
71048;SDS011;58704;53.358;-6.238;2023-12-22T07:56:44;17.80;;;2.67;;
71048;SDS011;58704;53.358;-6.238;2023-12-22T07:59:10;10.37;;;2.20;;
71048;SDS011;58704;53.358;-6.238;2023-12-22T08:01:35;13.60;;;2.63;;
71048;SDS011;58704;53.358;-6.238;2023-12-22T08:04:00;16.60;;;2.70;;
71048;SDS011;58704;53.358;-6.238;2023-12-22T08:06:25;12.63;;;2.50;;
71048;SDS011;58704;53.358;-6.238;2023-12-22T08:08:51;20.70;;;2.67;;
71048;SDS011;58704;53.358;-6.238;2023-12-22T08:11:16;16.20;;;2.77;;
71048;SDS011;58704;53.358;-6.238;2023-12-22T08:13:41;18.27;;;3.43;;
71048;SDS011;58704;53.358;-6.238;2023-12-22T08:16:07;25.63;;;3.73;;
71048;SDS011;58704;53.358;-6.238;2023-12-22T08:18:32;24.17;;;3.03;;
71048;SDS011;58704;53.358;-6.238;2023-12-22T08:20:57;15.93;;;2.33;;
71048;SDS011;58704;53.358;-6.238;2023-12-22T08:23:22;13.37;;;2.40;;
71048;SDS011;58704;53.358;-6.238;2023-12-22T08:25:48;21.57;;;3.47;;
71048;SDS011;58704;53.358;-6.238;2023-12-22T08:28:14;13.85;;;2.55;;
71048;SDS011;58704;53.358;-6.238;2023-12-22T08:30:39;18.10;;;2.60;;
71048;SDS011;58704;53.358;-6.238;2023-12-22T08:33:05;18.53;;;3.20;;
71048;SDS011;58704;53.358;-6.238;2023-12-22T08:35:30;25.00;;;2.80;;
71048;SDS011;58704;53.358;-6.238;2023-12-22T08:37:55;18.20;;;2.73;;
71048;SDS011;58704;53.358;-6.238;2023-12-22T08:40:21;18.37;;;3.20;;
71048;SDS011;58704;53.358;-6.238;2023-12-22T08:42:50;18.65;;;3.33;;
71048;SDS011;58704;53.358;-6.238;2023-12-22T08:45:19;18.73;;;2.70;;
71048;SDS011;58704;53.358;-6.238;2023-12-22T08:47:44;13.87;;;2.47;;
71048;SDS011;58704;53.358;-6.238;2023-12-22T08:50:10;20.27;;;2.70;;
71048;SDS011;58704;53.358;-6.238;2023-12-22T08:52:37;21.70;;;3.42;;
71048;SDS011;58704;53.358;-6.238;2023-12-22T08:55:05;14.93;;;2.77;;
71048;SDS011;58704;53.358;-6.238;2023-12-22T08:57:30;17.73;;;2.47;;
71048;SDS011;58704;53.358;-6.238;2023-12-22T08:59:56;22.77;;;2.87;;
71048;SDS011;58704;53.358;-6.238;2023-12-22T09:02:22;19.10;;;3.17;;
71048;SDS011;58704;53.358;-6.238;2023-12-22T09:04:47;13.83;;;2.40;;
71048;SDS011;58704;53.358;-6.238;2023-12-22T09:07:12;20.03;;;3.17;;
71048;SDS011;58704;53.358;-6.238;2023-12-22T09:09:37;15.73;;;3.17;;
71048;SDS011;58704;53.358;-6.238;2023-12-22T09:12:03;14.23;;;2.53;;
71048;SDS011;58704;53.358;-6.238;2023-12-22T09:14:29;14.60;;;2.77;;
71048;SDS011;58704;53.358;-6.238;2023-12-22T09:16:55;14.95;;;2.72;;
71048;SDS011;58704;53.358;-6.238;2023-12-22T09:19:21;15.67;;;2.90;;
71048;SDS011;58704;53.358;-6.238;2023-12-22T09:21:46;12.45;;;2.75;;
71048;SDS011;58704;53.358;-6.238;2023-12-22T09:24:12;20.50;;;2.90;;
71048;SDS011;58704;53.358;-6.238;2023-12-22T09:26:37;21.57;;;2.93;;
71048;SDS011;58704;53.358;-6.238;2023-12-22T09:29:02;16.17;;;3.20;;
71048;SDS011;58704;53.358;-6.238;2023-12-22T09:31:28;20.80;;;3.60;;
71048;SDS011;58704;53.358;-6.238;2023-12-22T09:33:53;19.67;;;3.70;;
71048;SDS011;58704;53.358;-6.238;2023-12-22T09:36:18;21.10;;;3.40;;
71048;SDS011;58704;53.358;-6.238;2023-12-22T09:38:43;14.93;;;2.40;;
71048;SDS011;58704;53.358;-6.238;2023-12-22T09:41:10;18.80;;;3.15;;
71048;SDS011;58704;53.358;-6.238;2023-12-22T09:43:35;17.43;;;2.57;;
71048;SDS011;58704;53.358;-6.238;2023-12-22T09:46:04;16.73;;;2.47;;
71048;SDS011;58704;53.358;-6.238;2023-12-22T09:48:30;20.67;;;2.70;;
71048;SDS011;58704;53.358;-6.238;2023-12-22T09:50:57;18.35;;;2.30;;
71048;SDS011;58704;53.358;-6.238;2023-12-22T09:53:24;13.87;;;2.67;;
71048;SDS011;58704;53.358;-6.238;2023-12-22T09:55:51;15.50;;;2.33;;
71048;SDS011;58704;53.358;-6.238;2023-12-22T09:58:17;13.82;;;2.80;;
71048;SDS011;58704;53.358;-6.238;2023-12-22T10:00:43;18.80;;;2.70;;
71048;SDS011;58704;53.358;-6.238;2023-12-22T10:03:09;14.48;;;2.10;;
71048;SDS011;58704;53.358;-6.238;2023-12-22T10:05:35;16.23;;;2.33;;
71048;SDS011;58704;53.358;-6.238;2023-12-22T10:08:01;15.60;;;3.70;;
71048;SDS011;58704;53.358;-6.238;2023-12-22T10:10:29;15.10;;;2.42;;
71048;SDS011;58704;53.358;-6.238;2023-12-22T10:12:55;14.90;;;2.63;;
71048;SDS011;58704;53.358;-6.238;2023-12-22T10:15:21;17.67;;;2.87;;
71048;SDS011;58704;53.358;-6.238;2023-12-22T10:17:49;10.88;;;2.58;;
71048;SDS011;58704;53.358;-6.238;2023-12-22T10:20:14;12.03;;;2.53;;
71048;SDS011;58704;53.358;-6.238;2023-12-22T10:22:39;12.75;;;2.47;;
71048;SDS011;58704;53.358;-6.238;2023-12-22T10:25:05;13.20;;;2.23;;
71048;SDS011;58704;53.358;-6.238;2023-12-22T10:27:31;17.37;;;3.07;;
71048;SDS011;58704;53.358;-6.238;2023-12-22T10:29:57;13.43;;;2.20;;
71048;SDS011;58704;53.358;-6.238;2023-12-22T10:32:23;15.77;;;2.30;;
71048;SDS011;58704;53.358;-6.238;2023-12-22T10:34:50;14.00;;;2.90;;
71048;SDS011;58704;53.358;-6.238;2023-12-22T10:37:16;16.40;;;3.05;;
71048;SDS011;58704;53.358;-6.238;2023-12-22T10:39:41;22.60;;;3.20;;
71048;SDS011;58704;53.358;-6.238;2023-12-22T10:42:06;17.88;;;3.17;;
71048;SDS011;58704;53.358;-6.238;2023-12-22T10:44:32;13.07;;;2.47;;
71048;SDS011;58704;53.358;-6.238;2023-12-22T10:46:57;12.77;;;2.40;;
71048;SDS011;58704;53.358;-6.238;2023-12-22T10:49:23;12.52;;;2.70;;
71048;SDS011;58704;53.358;-6.238;2023-12-22T10:51:49;18.20;;;3.00;;
71048;SDS011;58704;53.358;-6.238;2023-12-22T10:54:15;16.48;;;3.22;;
71048;SDS011;58704;53.358;-6.238;2023-12-22T10:56:41;19.03;;;3.10;;
71048;SDS011;58704;53.358;-6.238;2023-12-22T10:59:06;17.23;;;2.28;;
71048;SDS011;58704;53.358;-6.238;2023-12-22T11:01:32;16.03;;;2.27;;
71048;SDS011;58704;53.358;-6.238;2023-12-22T11:04:04;15.55;;;2.00;;
71048;SDS011;58704;53.358;-6.238;2023-12-22T11:06:30;13.02;;;2.33;;
71048;SDS011;58704;53.358;-6.238;2023-12-22T11:08:59;13.10;;;2.15;;
71048;SDS011;58704;53.358;-6.238;2023-12-22T11:11:32;12.03;;;2.57;;
71048;SDS011;58704;53.358;-6.238;2023-12-22T11:13:59;11.90;;;2.38;;
71048;SDS011;58704;53.358;-6.238;2023-12-22T11:16:24;13.02;;;2.30;;
71048;SDS011;58704;53.358;-6.238;2023-12-22T11:18:52;20.92;;;2.60;;
71048;SDS011;58704;53.358;-6.238;2023-12-22T11:21:21;16.85;;;2.78;;
71048;SDS011;58704;53.358;-6.238;2023-12-22T11:23:47;12.13;;;2.33;;
71048;SDS011;58704;53.358;-6.238;2023-12-22T11:26:12;11.93;;;2.60;;
71048;SDS011;58704;53.358;-6.238;2023-12-22T11:28:41;12.70;;;2.47;;
71048;SDS011;58704;53.358;-6.238;2023-12-22T11:31:09;8.88;;;2.25;;
71048;SDS011;58704;53.358;-6.238;2023-12-22T11:33:35;10.00;;;2.35;;
71048;SDS011;58704;53.358;-6.238;2023-12-22T11:36:01;14.57;;;2.90;;
71048;SDS011;58704;53.358;-6.238;2023-12-22T11:38:28;13.17;;;2.47;;
71048;SDS011;58704;53.358;-6.238;2023-12-22T11:40:54;11.73;;;2.30;;
71048;SDS011;58704;53.358;-6.238;2023-12-22T11:43:20;14.00;;;2.72;;
71048;SDS011;58704;53.358;-6.238;2023-12-22T11:45:48;12.73;;;2.00;;
71048;SDS011;58704;53.358;-6.238;2023-12-22T11:48:13;11.93;;;1.83;;
71048;SDS011;58704;53.358;-6.238;2023-12-22T11:50:39;15.90;;;2.30;;
71048;SDS011;58704;53.358;-6.238;2023-12-22T11:53:23;12.40;;;2.58;;
71048;SDS011;58704;53.358;-6.238;2023-12-22T11:55:55;8.67;;;2.07;;
71048;SDS011;58704;53.358;-6.238;2023-12-22T11:58:40;11.57;;;2.17;;
71048;SDS011;58704;53.358;-6.238;2023-12-22T12:01:07;11.30;;;2.55;;
71048;SDS011;58704;53.358;-6.238;2023-12-22T12:03:32;13.32;;;2.13;;
71048;SDS011;58704;53.358;-6.238;2023-12-22T12:06:10;13.20;;;2.30;;
71048;SDS011;58704;53.358;-6.238;2023-12-22T12:08:36;9.47;;;1.80;;
71048;SDS011;58704;53.358;-6.238;2023-12-22T12:11:01;9.13;;;1.60;;
71048;SDS011;58704;53.358;-6.238;2023-12-22T12:13:28;8.83;;;2.10;;
71048;SDS011;58704;53.358;-6.238;2023-12-22T12:15:56;13.45;;;2.50;;
71048;SDS011;58704;53.358;-6.238;2023-12-22T12:18:24;11.82;;;1.80;;
71048;SDS011;58704;53.358;-6.238;2023-12-22T12:20:52;8.63;;;2.10;;
71048;SDS011;58704;53.358;-6.238;2023-12-22T12:23:17;12.27;;;2.27;;
71048;SDS011;58704;53.358;-6.238;2023-12-22T12:25:45;12.38;;;2.10;;
71048;SDS011;58704;53.358;-6.238;2023-12-22T12:28:12;7.50;;;2.10;;
71048;SDS011;58704;53.358;-6.238;2023-12-22T12:30:38;12.60;;;2.40;;
71048;SDS011;58704;53.358;-6.238;2023-12-22T12:33:10;10.73;;;2.00;;
71048;SDS011;58704;53.358;-6.238;2023-12-22T12:35:35;12.73;;;1.80;;
71048;SDS011;58704;53.358;-6.238;2023-12-22T12:38:02;8.03;;;1.87;;
71048;SDS011;58704;53.358;-6.238;2023-12-22T12:40:28;11.52;;;1.90;;
71048;SDS011;58704;53.358;-6.238;2023-12-22T12:43:00;14.18;;;2.60;;
71048;SDS011;58704;53.358;-6.238;2023-12-22T12:45:25;6.95;;;1.65;;
71048;SDS011;58704;53.358;-6.238;2023-12-22T12:47:54;10.23;;;2.10;;
71048;SDS011;58704;53.358;-6.238;2023-12-22T12:50:23;11.98;;;2.10;;
71048;SDS011;58704;53.358;-6.238;2023-12-22T12:52:48;8.23;;;2.10;;
71048;SDS011;58704;53.358;-6.238;2023-12-22T12:55:16;9.63;;;1.60;;
71048;SDS011;58704;53.358;-6.238;2023-12-22T12:57:43;9.43;;;1.67;;
71048;SDS011;58704;53.358;-6.238;2023-12-22T13:00:08;12.93;;;2.03;;
71048;SDS011;58704;53.358;-6.238;2023-12-22T13:02:34;8.27;;;1.60;;
71048;SDS011;58704;53.358;-6.238;2023-12-22T13:05:00;9.80;;;1.77;;
71048;SDS011;58704;53.358;-6.238;2023-12-22T13:07:29;7.63;;;1.65;;
71048;SDS011;58704;53.358;-6.238;2023-12-22T15:00:51;6.90;;;1.83;;
71048;SDS011;58704;53.358;-6.238;2023-12-22T15:03:16;9.10;;;2.13;;
71048;SDS011;58704;53.358;-6.238;2023-12-22T15:05:42;9.40;;;1.70;;
71048;SDS011;58704;53.358;-6.238;2023-12-22T15:08:07;5.93;;;1.50;;
71048;SDS011;58704;53.358;-6.238;2023-12-22T15:10:32;9.37;;;1.60;;
71048;SDS011;58704;53.358;-6.238;2023-12-22T15:12:57;4.93;;;1.20;;
71048;SDS011;58704;53.358;-6.238;2023-12-22T15:15:23;5.93;;;1.33;;
71048;SDS011;58704;53.358;-6.238;2023-12-22T15:17:48;6.77;;;1.70;;
71048;SDS011;58704;53.358;-6.238;2023-12-22T15:20:14;9.00;;;1.57;;
71048;SDS011;58704;53.358;-6.238;2023-12-22T15:22:39;5.33;;;1.60;;
71048;SDS011;58704;53.358;-6.238;2023-12-22T15:25:05;5.45;;;1.50;;
71048;SDS011;58704;53.358;-6.238;2023-12-22T15:27:30;4.70;;;1.53;;
71048;SDS011;58704;53.358;-6.238;2023-12-22T15:29:56;6.60;;;1.65;;
71048;SDS011;58704;53.358;-6.238;2023-12-22T15:32:23;5.90;;;1.40;;
71048;SDS011;58704;53.358;-6.238;2023-12-22T15:34:48;7.13;;;1.37;;
71048;SDS011;58704;53.358;-6.238;2023-12-22T15:37:14;10.03;;;1.90;;
71048;SDS011;58704;53.358;-6.238;2023-12-22T15:39:39;8.53;;;1.90;;
71048;SDS011;58704;53.358;-6.238;2023-12-22T15:42:04;7.00;;;2.60;;
71048;SDS011;58704;53.358;-6.238;2023-12-22T15:44:29;7.20;;;2.90;;
71048;SDS011;58704;53.358;-6.238;2023-12-22T15:46:55;6.53;;;2.03;;
71048;SDS011;58704;53.358;-6.238;2023-12-22T15:49:21;6.70;;;1.90;;
71048;SDS011;58704;53.358;-6.238;2023-12-22T15:51:47;7.07;;;1.50;;
71048;SDS011;58704;53.358;-6.238;2023-12-22T15:54:12;12.90;;;2.45;;
71048;SDS011;58704;53.358;-6.238;2023-12-22T15:56:38;9.20;;;2.00;;
71048;SDS011;58704;53.358;-6.238;2023-12-22T15:59:03;9.90;;;2.17;;
71048;SDS011;58704;53.358;-6.238;2023-12-22T16:01:28;11.73;;;2.77;;
71048;SDS011;58704;53.358;-6.238;2023-12-22T16:03:53;6.37;;;2.00;;
71048;SDS011;58704;53.358;-6.238;2023-12-22T16:06:18;8.40;;;2.17;;
71048;SDS011;58704;53.358;-6.238;2023-12-22T16:08:44;12.30;;;2.13;;
71048;SDS011;58704;53.358;-6.238;2023-12-22T16:11:09;7.73;;;2.10;;